Home > Products > Valid Products > TAF

000
FTUS44 KLZK 200900 AAA
TAFHOT
TAF AMD
KHOT 200952Z 2010/2106 VRB03KT P6SM SCT120 SCT250
      TEMPO 2010/2013 4SM BR BKN002
     FM201400 VRB04KT P6SM SCT040 BKN060
     FM210100 00000KT P6SM SCT060 SCT250=



000
FTUS44 KLZK 200900 AAA
TAFHOT
TAF AMD
KHOT 200952Z 2010/2106 VRB03KT P6SM SCT120 SCT250
      TEMPO 2010/2013 4SM BR BKN002
     FM201400 VRB04KT P6SM SCT040 BKN060
     FM210100 00000KT P6SM SCT060 SCT250=



000
FTUS44 KLZK 200500
TAFPBF
TAF
KPBF 200539Z 2006/2106 VRB03KT P6SM SCT120 SCT250
     FM201400 VRB04KT P6SM SCT050 BKN120
     FM210100 00000KT P6SM SCT120 SCT250=



000
FTUS44 KLZK 200500
TAFHRO
TAF
KHRO 200539Z 2006/2106 VRB03KT P6SM SCT060 BKN100
     FM201400 25005KT P6SM SCT025 BKN060
     FM202000 31005KT P6SM SCT035 BKN060
     FM210100 32003KT P6SM SCT060 SCT250=



000
FTUS44 KLZK 200500
TAFLIT
TAF
KLIT 200539Z 2006/2106 VRB03KT P6SM SCT120 SCT250
     FM201400 26005KT P6SM SCT040 BKN060
     FM210100 VRB03KT P6SM SCT060 SCT250=



000
FTUS44 KLZK 200500
TAFHOT
TAF
KHOT 200539Z 2006/2106 VRB03KT P6SM SCT120 SCT250
     FM201400 VRB04KT P6SM SCT040 BKN060
     FM210100 00000KT P6SM SCT060 SCT250=



000
FTUS44 KLZK 192300
TAFHRO
TAF
KHRO 192320Z 2000/2024 VRB04KT P6SM SCT060 BKN100
     FM201300 25005KT P6SM SCT030 BKN060
     FM202100 32005KT P6SM SCT030 BKN060=



000
FTUS44 KLZK 192300
TAFHOT
TAF
KHOT 192320Z 2000/2024 VRB03KT P6SM SCT120 SCT250
     FM201500 VRB06KT P6SM BKN060=



000
FTUS44 KLZK 192300
TAFLIT
TAF
KLIT 192320Z 2000/2024 00000KT P6SM SCT150 SCT250
     FM201500 25004KT P6SM BKN060=



000
FTUS44 KLZK 192300
TAFHRO
TAF
KHRO 192320Z 2000/2024 VRB04KT P6SM SCT060 BKN100
     FM201300 25005KT P6SM SCT030 BKN060
     FM202100 32005KT P6SM SCT030 BKN060=



000
FTUS44 KLZK 192300
TAFHOT
TAF
KHOT 192320Z 2000/2024 VRB03KT P6SM SCT120 SCT250
     FM201500 VRB06KT P6SM BKN060=



000
FTUS44 KLZK 192300
TAFPBF
TAF
KPBF 192320Z 2000/2024 00000KT P6SM SCT250
     FM201500 27004KT P6SM BKN120=



000
FTUS44 KLZK 192300
TAFPBF
TAF
KPBF 192320Z 2000/2024 00000KT P6SM SCT250
     FM201500 27004KT P6SM BKN120=



000
FTUS44 KLZK 192300
TAFLIT
TAF
KLIT 192320Z 2000/2024 00000KT P6SM SCT150 SCT250
     FM201500 25004KT P6SM BKN060=



000
FTUS44 KLZK 191700
TAFLIT
TAF
KLIT 191736Z 1918/2018 11005KT P6SM SCT040 SCT150
     FM200000 00000KT P6SM SCT120 SCT250
     FM201300 25004KT P6SM OVC060=



000
FTUS44 KLZK 191700
TAFHOT
TAF
KHOT 191736Z 1918/2018 11005KT P6SM SCT040 SCT150
     FM200000 00000KT P6SM SCT120 SCT250
     FM201300 26003KT P6SM OVC060=



000
FTUS44 KLZK 191700
TAFHRO
TAF
KHRO 191736Z 1918/2018 16006KT P6SM SCT150
     FM200000 15004KT P6SM SCT120 BKN250
     FM200600 19004KT P6SM SCT060 BKN100
     FM201300 25005KT P6SM OVC030=



000
FTUS44 KLZK 191700
TAFPBF
TAF
KPBF 191736Z 1918/2018 07005KT P6SM SCT040 SCT250
     FM200000 00000KT P6SM SCT250
     FM201300 24004KT P6SM BKN120=



000
FTUS44 KLZK 191100
TAFLIT
TAF
KLIT 191133Z 1912/2012 VRB03KT P6SM BKN250
     FM191500 11005KT P6SM BKN250
     FM200000 VRB03KT P6SM SCT120 BKN250=



000
FTUS44 KLZK 191100
TAFHOT
TAF
KHOT 191133Z 1912/2012 VRB03KT P6SM BKN250
     FM191500 14005KT P6SM BKN250
     FM200000 VRB03KT P6SM SCT120 BKN250=



000
FTUS44 KLZK 191100
TAFHRO
TAF
KHRO 191133Z 1912/2012 VRB03KT P6SM BKN250
     FM191500 16007KT P6SM BKN250
     FM200000 17005KT P6SM SCT120 BKN250
     FM200600 20004KT P6SM SCT060 BKN100=



000
FTUS44 KLZK 191100
TAFPBF
TAF
KPBF 191133Z 1912/2012 VRB03KT P6SM SCT250
     FM191500 07005KT P6SM SCT250
     FM200000 VRB03KT P6SM BKN250=



000
FTUS44 KLZK 190500
TAFHOT
TAF
KHOT 190536Z 1906/2006 08003KT P6SM BKN250
     FM191500 12005KT P6SM SCT250
     FM200000 12003KT P6SM BKN250=



000
FTUS44 KLZK 190500
TAFLIT
TAF
KLIT 190536Z 1906/2006 06003KT P6SM BKN250
     FM191500 11005KT P6SM SCT250
     FM200000 14003KT P6SM BKN250=



000
FTUS44 KLZK 190500
TAFHRO
TAF
KHRO 190536Z 1906/2006 VRB03KT P6SM BKN250
     FM191500 15007KT P6SM SCT250
     FM200000 17005KT P6SM SCT120 BKN250=



000
FTUS44 KLZK 190500
TAFPBF
TAF
KPBF 190536Z 1906/2006 05004KT P6SM BKN250
     FM191500 07006KT P6SM SCT250
     FM200000 12003KT P6SM BKN250=



000
FTUS44 KLZK 182300
TAFLIT
TAF
KLIT 182320Z 1900/1924 VRB03KT P6SM SCT150
     FM191500 10005KT P6SM SCT150=



000
FTUS44 KLZK 182300
TAFHOT
TAF
KHOT 182320Z 1900/1924 VRB03KT P6SM SCT150
     FM191500 12005KT P6SM SCT150=



000
FTUS44 KLZK 182300
TAFHRO
TAF
KHRO 182320Z 1900/1924 VRB03KT P6SM SCT150
     FM191500 15006KT P6SM SCT150=



000
FTUS44 KLZK 182300
TAFPBF
TAF
KPBF 182320Z 1900/1924 VRB04KT P6SM SCT150
     FM191500 08005KT P6SM SCT150=



000
FTUS44 KLZK 181700
TAFHOT
TAF
KHOT 181734Z 1818/1918 05006KT P6SM SCT150
     FM190000 09003KT P6SM SCT150
     FM191500 12005KT P6SM SCT150=



000
FTUS44 KLZK 181700
TAFLIT
TAF
KLIT 181734Z 1818/1918 01009KT P6SM SCT150
     FM190000 04003KT P6SM SCT150
     FM191500 10005KT P6SM SCT150=



000
FTUS44 KLZK 181700
TAFHRO
TAF
KHRO 181734Z 1818/1918 35008KT P6SM SCT150
     FM190000 VRB03KT P6SM SCT150
     FM191500 15006KT P6SM SCT150=



000
FTUS44 KLZK 181700
TAFPBF
TAF
KPBF 181734Z 1818/1918 01010KT P6SM SCT150
     FM190000 03004KT P6SM SCT150
     FM191500 08005KT P6SM SCT150=



000
FTUS44 KLZK 181100
TAFPBF
TAF
KPBF 181135Z 1812/1912 36004KT P6SM FEW250
     FM181500 02007KT P6SM FEW250
     FM190000 04004KT P6SM FEW250=



000
FTUS44 KLZK 181100
TAFHRO
TAF
KHRO 181135Z 1812/1912 30004KT P6SM FEW250
     FM181500 35008KT P6SM FEW250
     FM190000 02005KT P6SM FEW250=



000
FTUS44 KLZK 181100
TAFHOT
TAF
KHOT 181135Z 1812/1912 00000KT P6SM SCT250
     FM181500 06005KT P6SM FEW250
     FM190000 07003KT P6SM FEW250=



000
FTUS44 KLZK 181100
TAFLIT
TAF
KLIT 181135Z 1812/1912 33003KT P6SM BKN250
     FM181500 02008KT P6SM SCT250
     FM190000 04005KT P6SM FEW250=



000
FTUS44 KLZK 181100
TAFPBF
TAF
KPBF 181135Z 1812/1912 36004KT P6SM FEW250
     FM181500 02007KT P6SM FEW250
     FM190000 04004KT P6SM FEW250=



000
FTUS44 KLZK 181100
TAFHOT
TAF
KHOT 181135Z 1812/1912 00000KT P6SM SCT250
     FM181500 06005KT P6SM FEW250
     FM190000 07003KT P6SM FEW250=



000
FTUS44 KLZK 181100
TAFLIT
TAF
KLIT 181135Z 1812/1912 33003KT P6SM BKN250
     FM181500 02008KT P6SM SCT250
     FM190000 04005KT P6SM FEW250=



000
FTUS44 KLZK 181100
TAFHRO
TAF
KHRO 181135Z 1812/1912 30004KT P6SM FEW250
     FM181500 35008KT P6SM FEW250
     FM190000 02005KT P6SM FEW250=



000
FTUS44 KLZK 180500
TAFHRO
TAF
KHRO 180539Z 1806/1906 VRB03KT P6SM SKC
     FM181500 35008KT P6SM SCT250
     FM190000 02005KT P6SM FEW250=



000
FTUS44 KLZK 180500
TAFHOT
TAF
KHOT 180539Z 1806/1906 00000KT P6SM FEW250
     FM181500 06005KT P6SM FEW250
     FM190000 07003KT P6SM FEW250=



000
FTUS44 KLZK 180500
TAFLIT
TAF
KLIT 180539Z 1806/1906 31005KT P6SM FEW250
     FM181500 02008KT P6SM FEW250
     FM190000 04005KT P6SM FEW250=



000
FTUS44 KLZK 180500
TAFPBF
TAF
KPBF 180539Z 1806/1906 32004KT P6SM FEW250
     FM181500 02007KT P6SM FEW250
     FM190000 04004KT P6SM FEW250=



000
FTUS44 KLZK 172300
TAFPBF
TAF
KPBF 172328Z 1800/1824 28005KT P6SM SCT250
     FM181500 02007KT P6SM SCT250=



000
FTUS44 KLZK 172300
TAFHRO
TAF
KHRO 172328Z 1800/1824 32005KT P6SM SKC
     FM181500 35008KT P6SM SCT250=



000
FTUS44 KLZK 172300
TAFHOT
TAF
KHOT 172328Z 1800/1824 32005KT P6SM SCT250
     FM181500 36007KT P6SM SCT250=



000
FTUS44 KLZK 172300
TAFLIT
TAF
KLIT 172328Z 1800/1824 31005KT P6SM SCT250
     FM181500 01007KT P6SM SCT250=



000
FTUS44 KLZK 172300
TAFHRO
TAF
KHRO 172328Z 1800/1824 32005KT P6SM SKC
     FM181500 35008KT P6SM SCT250=



000
FTUS44 KLZK 172300
TAFHOT
TAF
KHOT 172328Z 1800/1824 32005KT P6SM SCT250
     FM181500 36007KT P6SM SCT250=



000
FTUS44 KLZK 172300
TAFLIT
TAF
KLIT 172328Z 1800/1824 31005KT P6SM SCT250
     FM181500 01007KT P6SM SCT250=



000
FTUS44 KLZK 172300
TAFPBF
TAF
KPBF 172328Z 1800/1824 28005KT P6SM SCT250
     FM181500 02007KT P6SM SCT250=



000
FTUS44 KLZK 171700
TAFHRO
TAF
KHRO 171736Z 1718/1818 33007KT P6SM SCT250
     FM180000 33003KT P6SM SKC
     FM181500 36007KT P6SM SKC=



000
FTUS44 KLZK 171700
TAFPBF
TAF
KPBF 171736Z 1718/1818 28010KT P6SM SKC
     FM180100 36005KT P6SM SKC
     FM181500 01009KT P6SM SKC=



000
FTUS44 KLZK 171700
TAFHOT
TAF
KHOT 171736Z 1718/1818 30003KT P6SM SKC
     FM180000 01002KT P6SM SKC
     FM181500 05006KT P6SM SKC=



000
FTUS44 KLZK 171700
TAFLIT
TAF
KLIT 171736Z 1718/1818 33006KT P6SM SKC
     FM180000 36004KT P6SM SKC
     FM181500 02008KT P6SM SKC=



    US Dept of Commerce
    National Oceanic and Atmospheric Administration
    National Weather Service
    1325 East West Highway
    Silver Spring, MD 20910
    Page Author: NWS Internet Services Team
Disclaimer
Information Quality
Credits
Glossary
Privacy Policy
Freedom of Information Act (FOIA)
About Us
Career Opportunities